Ram Vi — WRA8604 — position and weather

sailwx.info

Track history (hours):
 
Tides and Currents Weather Stations Pressure Air Temp Water Temp Dewpoint Dewpoint Depression Visibility Wind Speed Wind Dir Waves Ship Positions

Ram Vi

Owner: ARIES MARINE CORP, LAFAYETTE, LA. More information available from US FCC via Universal Licensing System and Coast Guard Vessel Documentation Center.

Last reported at 2017-May-27 23:10 UTC. Time now 2017-Jun-22 12:07 UTC.
Position N 29°35' W 092°18'.
Warning: this ship's position is 25 days out of date.

MMSI: 367035040.

Date/timePositionNaut miles runAvg speedWind from/ knotsBaromVisibWave heightAir tempDewpointWater temp
2017-May-27 23:10N 29°35' W 092°18'2 7.1
2017-May-27 22:52N 29°37' W 092°17'2 6.5
2017-May-27 22:30N 29°39' W 092°16'3 6.5
2017-May-27 22:00N 29°43' W 092°15'3 5.8
2017-May-27 21:30N 29°45' W 092°13'3 6.0
2017-May-27 21:00N 29°47' W 092°10'2 3.1
2017-May-27 20:28N 29°48' W 092°09'0 0.0
2017-May-27 19:58N 29°48' W 092°09'0 0.0
2017-May-27 19:28N 29°48' W 092°09'0 0.0
2017-May-27 18:58N 29°48' W 092°09'0 0.7
2017-May-27 18:31N 29°47' W 092°09'3 5.3
2017-May-27 18:00N 29°48' W 092°06'3 6.5
2017-May-27 17:31N 29°49' W 092°02'3 6.7
2017-May-27 17:00N 29°50' W 091°58'  
2017-May-25 08:32N 29°57' W 091°50'0 0.0
2017-May-25 08:05N 29°57' W 091°50'0 0.1
2017-May-25 07:59N 29°57' W 091°50'0 0.0
2017-May-25 07:29N 29°57' W 091°50'0 0.0
2017-May-25 06:59N 29°57' W 091°50'0 0.0
2017-May-25 05:35N 29°57' W 091°50'0 0.0
2017-May-25 05:26N 29°57' W 091°50'0 0.0
2017-May-25 04:59N 29°57' W 091°50'0 0.0
2017-May-24 06:27N 29°57' W 091°50'0 0.0
2017-May-24 06:00N 29°57' W 091°50'0 0.0
2017-May-24 04:27N 29°57' W 091°50'0 0.0
2017-May-24 03:54N 29°57' W 091°50'0 0.0
2017-May-23 11:25N 29°57' W 091°50'0 0.0
2017-May-23 08:55N 29°57' W 091°50'0 0.0
2017-May-23 07:06N 29°57' W 091°50'0 0.0
2017-May-23 06:58N 29°57' W 091°50'0 0.0
2017-May-23 06:30N 29°57' W 091°50'0 0.0
2017-May-23 06:00N 29°57' W 091°50'0 0.0
2017-May-22 11:36N 29°57' W 091°50'0 0.1
2017-May-22 11:30N 29°57' W 091°50'  
Track history (hours):
 
Tides and Currents Weather Stations Pressure Air Temp Water Temp Dewpoint Dewpoint Depression Visibility Wind Speed Wind Dir Waves Ship Positions

Ram Vi

Owner: ARIES MARINE CORP, LAFAYETTE, LA. More information available from US FCC via Universal Licensing System and Coast Guard Vessel Documentation Center.

Last reported at 2017-May-27 23:10 UTC. Time now 2017-Jun-22 12:07 UTC.
Position N 29°35' W 092°18'.
Warning: this ship's position is 25 days out of date.

MMSI: 367035040.

Date/timePositionNaut miles runAvg speedWind from/ knotsBaromVisibWave heightAir tempDewpointWater temp
2017-May-27 23:10N 29°35' W 092°18'2 7.1
2017-May-27 22:52N 29°37' W 092°17'2 6.5
2017-May-27 22:30N 29°39' W 092°16'3 6.5
2017-May-27 22:00N 29°43' W 092°15'3 5.8
2017-May-27 21:30N 29°45' W 092°13'3 6.0
2017-May-27 21:00N 29°47' W 092°10'2 3.1
2017-May-27 20:28N 29°48' W 092°09'0 0.0
2017-May-27 19:58N 29°48' W 092°09'0 0.0
2017-May-27 19:28N 29°48' W 092°09'0 0.0
2017-May-27 18:58N 29°48' W 092°09'0 0.7
2017-May-27 18:31N 29°47' W 092°09'3 5.3
2017-May-27 18:00N 29°48' W 092°06'3 6.5
2017-May-27 17:31N 29°49' W 092°02'3 6.7
2017-May-27 17:00N 29°50' W 091°58'  
2017-May-25 08:32N 29°57' W 091°50'0 0.0
2017-May-25 08:05N 29°57' W 091°50'0 0.1
2017-May-25 07:59N 29°57' W 091°50'0 0.0
2017-May-25 07:29N 29°57' W 091°50'0 0.0
2017-May-25 06:59N 29°57' W 091°50'0 0.0
2017-May-25 05:35N 29°57' W 091°50'0 0.0
2017-May-25 05:26N 29°57' W 091°50'0 0.0
2017-May-25 04:59N 29°57' W 091°50'0 0.0
2017-May-24 06:27N 29°57' W 091°50'0 0.0
2017-May-24 06:00N 29°57' W 091°50'0 0.0
2017-May-24 04:27N 29°57' W 091°50'0 0.0
2017-May-24 03:54N 29°57' W 091°50'0 0.0
2017-May-23 11:25N 29°57' W 091°50'0 0.0
2017-May-23 08:55N 29°57' W 091°50'0 0.0
2017-May-23 07:06N 29°57' W 091°50'0 0.0
2017-May-23 06:58N 29°57' W 091°50'0 0.0
2017-May-23 06:30N 29°57' W 091°50'0 0.0
2017-May-23 06:00N 29°57' W 091°50'0 0.0
2017-May-22 11:36N 29°57' W 091°50'0 0.1
2017-May-22 11:30N 29°57' W 091°50'  

Dump ship's entire track history